Terminal Aerodrome Forecast
Issued by NWS

Home | Current Version | Previous Version | Text Only | Print | Product List | Glossary On
Versions: 1 2 3 4 5 6 7 8 9 10 11 12 13 14 15
984
FTUS42 KMLB 251305 AAA
TAFSUA
TAF AMD
KSUA 251305Z 2513/2612 00000KT 2SM BR BKN002
      TEMPO 2513/2514 1/4SM FG OVC001
     FM251400 23004KT 5SM BR SCT005 BKN010
     FM251500 25007KT P6SM SCT015 SCT035
     FM260000 26004KT P6SM SCT035
     FM260600 33006KT P6SM SCT030 BKN060=

USA.gov is the U.S. government's official web portal to all federal, state and local government web resources and services.